Time;durP1;ratioP1;P1;durP2;ratioP2;P2;SDS_P1;SDS_P2;PMS_P1;PMS_P2;Temp;Humidity;BMP_temperature;BMP_pressure;BME280_temperature;BME280_humidity;BME280_pressure;Samples;Min_cycle;Max_cycle;Signal;HPM_P1;HPM_P2
2023/05/13 00:00:43;;;;;;;2.63;2.43;;;;;;;11.66;60.95;100060.50;5014750;28;20200;-69
2023/05/13 00:03:09;;;;;;;3.50;3.00;;;;;;;11.66;61.37;100062.31;5014469;28;20211;-70
2023/05/13 00:05:37;;;;;;;3.27;2.37;;;;;;;11.66;61.22;100051.66;5033844;28;20640;-71
2023/05/13 00:08:06;;;;;;;3.63;2.60;;;;;;;11.81;60.83;100071.91;5033369;28;20227;-70
2023/05/13 00:10:34;;;;;;;2.83;2.63;;;;;;;11.88;61.09;100070.13;5034262;28;20194;-70
2023/05/13 00:13:01;;;;;;;3.10;2.73;;;;;;;11.82;61.19;100068.22;5034120;28;20202;-70
2023/05/13 00:15:28;;;;;;;3.63;2.63;;;;;;;11.82;61.61;100067.41;5024005;28;20208;-69
2023/05/13 00:17:55;;;;;;;2.57;2.37;;;;;;;11.88;61.24;100062.13;5013799;28;20205;-70
2023/05/13 00:20:22;;;;;;;2.80;2.40;;;;;;;11.72;61.45;100067.69;5014255;28;20196;-69
2023/05/13 00:22:49;;;;;;;2.80;2.50;;;;;;;11.83;61.89;100069.88;5014270;28;20193;-69
2023/05/13 00:25:15;;;;;;;2.67;2.47;;;;;;;11.89;61.56;100077.13;5020509;28;20205;-69
2023/05/13 00:27:44;;;;;;;2.50;2.40;;;;;;;12.00;61.57;100076.59;5033408;28;20223;-69
2023/05/13 00:30:11;;;;;;;2.77;2.57;;;;;;;12.07;61.55;100081.97;5032412;28;20235;-69
2023/05/13 00:32:38;;;;;;;5.93;2.60;;;;;;;12.12;61.34;100080.38;5033414;28;20203;-70
2023/05/13 00:35:05;;;;;;;3.67;3.03;;;;;;;12.11;60.98;100077.91;5033475;28;20631;-70
2023/05/13 00:37:34;;;;;;;4.57;2.70;;;;;;;12.11;61.41;100070.75;5026028;28;20336;-70
2023/05/13 00:40:00;;;;;;;3.83;2.40;;;;;;;11.97;62.24;100066.31;5013895;28;20207;-69
2023/05/13 00:42:27;;;;;;;2.83;2.63;;;;;;;11.91;62.27;100069.75;5013450;28;20197;-70
2023/05/13 00:44:55;;;;;;;2.70;2.57;;;;;;;11.69;63.02;100073.44;5013137;28;20208;-70
2023/05/13 00:47:22;;;;;;;2.63;2.43;;;;;;;11.69;63.14;100085.91;5013606;28;20255;-70
2023/05/13 00:49:49;;;;;;;3.33;3.03;;;;;;;11.77;62.96;100089.28;5020662;28;20190;-69
2023/05/13 00:52:16;;;;;;;4.23;2.63;;;;;;;11.82;63.30;100088.69;5033337;28;20265;-70
2023/05/13 00:54:43;;;;;;;4.40;2.87;;;;;;;11.82;63.61;100097.50;5033147;28;20207;-69
2023/05/13 00:57:10;;;;;;;2.60;2.37;;;;;;;11.81;64.37;100092.38;5033417;28;20194;-70
2023/05/13 00:59:36;;;;;;;4.83;2.70;;;;;;;11.89;64.47;100093.09;5032332;28;20250;-70
2023/05/13 01:02:15;;;;;;;7.30;2.80;;;;;;;11.72;64.42;100074.88;5029564;28;20191;-70
2023/05/13 01:04:50;;;;;;;6.63;2.97;;;;;;;11.84;65.14;100103.44;5021517;28;20713;-70
2023/05/13 01:07:30;;;;;;;2.93;2.33;;;;;;;11.86;64.96;100106.75;5022161;28;20208;-71
2023/05/13 01:10:03;;;;;;;3.50;2.90;;;;;;;11.76;65.58;100095.59;5024520;28;20258;-70
2023/05/13 01:12:34;;;;;;;3.10;2.63;;;;;;;11.77;66.42;100094.59;5021905;28;20205;-70
2023/05/13 01:15:06;;;;;;;2.50;2.30;;;;;;;11.81;66.40;100098.53;5022746;28;20655;-69
2023/05/13 01:17:41;;;;;;;9.67;2.67;;;;;;;11.76;66.27;100092.91;5021769;28;20183;-69
2023/05/13 01:20:08;;;;;;;3.43;2.50;;;;;;;11.68;66.33;100095.69;5022462;28;20270;-69
2023/05/13 01:22:36;;;;;;;5.10;2.87;;;;;;;11.64;66.65;100099.75;5021341;28;20632;-71
2023/05/13 01:25:03;;;;;;;6.03;2.70;;;;;;;11.64;67.14;100093.63;5022343;28;20200;-71
2023/05/13 01:27:30;;;;;;;2.83;2.60;;;;;;;11.68;67.65;100090.38;5022044;28;20269;-71
2023/05/13 01:29:57;;;;;;;3.77;2.47;;;;;;;11.71;67.40;100082.03;5021725;28;20271;-71
2023/05/13 01:32:25;;;;;;;2.93;2.53;;;;;;;11.78;67.35;100088.25;5022028;28;20203;-71
2023/05/13 01:34:53;;;;;;;6.13;2.63;;;;;;;11.74;68.32;100094.13;5023296;28;20200;-72
2023/05/13 01:37:20;;;;;;;3.87;2.70;;;;;;;11.75;68.80;100096.59;5022170;28;20262;-71
2023/05/13 01:39:49;;;;;;;3.00;2.80;;;;;;;11.73;69.27;100101.31;5020249;28;20745;-71
2023/05/13 01:42:16;;;;;;;9.00;2.77;;;;;;;11.61;69.78;100113.44;5021582;28;20671;-71
2023/05/13 01:44:43;;;;;;;6.43;2.93;;;;;;;11.56;70.74;100107.00;5021965;28;20203;-71
2023/05/13 01:47:09;;;;;;;5.30;3.80;;;;;;;11.56;70.35;100115.00;5022285;28;20277;-71
2023/05/13 01:49:36;;;;;;;4.40;4.20;;;;;;;11.57;70.24;100106.81;5021049;28;20253;-71
2023/05/13 01:52:04;;;;;;;6.63;4.77;;;;;;;11.53;70.32;100121.50;5021983;28;20257;-71
2023/05/13 01:54:31;;;;;;;5.63;4.20;;;;;;;11.37;70.25;100097.78;5022991;28;20608;-71
2023/05/13 01:56:59;;;;;;;5.53;4.13;;;;;;;11.41;70.80;100112.38;5021730;28;20202;-70
2023/05/13 01:59:26;;;;;;;4.23;3.53;;;;;;;11.32;70.88;100110.81;5022786;28;20202;-70
2023/05/13 02:01:52;;;;;;;7.50;3.63;;;;;;;11.39;71.19;100127.66;5020554;28;20192;-70
2023/05/13 02:04:20;;;;;;;4.10;3.43;;;;;;;11.34;71.24;100122.09;5021500;28;20265;-69
2023/05/13 02:06:47;;;;;;;6.13;3.07;;;;;;;11.35;71.32;100122.91;5014900;28;20227;-70
2023/05/13 02:09:14;;;;;;;4.90;3.70;;;;;;;11.29;72.11;100118.31;5012072;28;20196;-71
2023/05/13 02:11:41;;;;;;;3.70;3.40;;;;;;;11.30;72.80;100126.13;5012788;28;20204;-71
2023/05/13 02:14:09;;;;;;;5.63;3.47;;;;;;;11.32;72.05;100121.47;5012883;28;20196;-69
2023/05/13 02:16:35;;;;;;;4.60;3.03;;;;;;;11.24;71.68;100102.94;5017672;28;20619;-68
2023/05/13 02:19:02;;;;;;;6.57;3.80;;;;;;;11.38;71.58;100122.53;5021848;28;20195;-69
2023/05/13 02:21:29;;;;;;;4.80;3.60;;;;;;;11.42;70.93;100116.66;5022784;28;20261;-69
2023/05/13 02:23:56;;;;;;;7.90;3.20;;;;;;;11.47;71.21;100108.94;5018853;28;20198;-69
2023/05/13 02:26:22;;;;;;;5.87;2.43;;;;;;;11.47;71.01;100113.44;5021453;28;20291;-69
2023/05/13 02:28:52;;;;;;;6.77;2.90;;;;;;;11.44;71.58;100106.69;5012567;28;20227;-69
2023/05/13 02:31:20;;;;;;;5.83;3.33;;;;;;;11.49;71.51;100103.44;5011995;28;20194;-69
2023/05/13 02:33:46;;;;;;;3.53;2.97;;;;;;;11.48;72.14;100107.13;5011870;28;20273;-70
2023/05/13 02:36:13;;;;;;;4.90;2.93;;;;;;;11.54;71.18;100112.50;5011938;28;20623;-70
2023/05/13 02:38:40;;;;;;;3.63;3.33;;;;;;;11.54;70.90;100107.19;5012320;28;20212;-70
2023/05/13 02:41:07;;;;;;;4.97;3.30;;;;;;;11.51;70.94;100109.41;5012335;28;20204;-71
2023/05/13 02:43:34;;;;;;;5.70;3.23;;;;;;;11.51;71.50;100107.56;5012272;28;20201;-70
2023/05/13 02:46:01;;;;;;;7.40;3.67;;;;;;;11.48;71.46;100102.63;5027666;28;20581;-71
2023/05/13 02:48:29;;;;;;;7.67;3.73;;;;;;;11.40;71.66;100101.91;5025316;28;20232;-70
2023/05/13 02:50:55;;;;;;;3.57;3.37;;;;;;;11.41;72.22;100107.03;5011542;28;20208;-71
2023/05/13 02:53:24;;;;;;;5.17;3.53;;;;;;;11.54;71.99;100122.31;5021615;28;20204;-70
2023/05/13 02:55:53;;;;;;;4.07;3.07;;;;;;;11.64;72.87;100120.22;5022113;28;20190;-70
2023/05/13 02:58:20;;;;;;;4.53;3.70;;;;;;;11.71;72.90;100121.94;5020649;28;20694;-69
2023/05/13 03:00:46;;;;;;;3.40;3.10;;;;;;;11.81;72.38;100119.81;5020659;28;20255;-71
2023/05/13 03:03:13;;;;;;;5.70;3.17;;;;;;;11.88;72.35;100128.69;5021851;28;20197;-70
2023/05/13 03:05:44;;;;;;;5.47;3.40;;;;;;;11.87;71.82;100129.69;5021316;28;20196;-70
2023/05/13 03:08:10;;;;;;;3.87;3.40;;;;;;;11.85;72.03;100125.59;5020900;28;20235;-70
2023/05/13 03:10:37;;;;;;;6.83;3.23;;;;;;;11.87;72.56;100132.38;5025487;28;20191;-71
2023/05/13 03:13:04;;;;;;;3.17;2.97;;;;;;;11.96;72.85;100128.56;5024110;28;20196;-70
2023/05/13 03:15:30;;;;;;;4.37;3.60;;;;;;;11.98;73.52;100139.88;5023722;28;20199;-70
2023/05/13 03:17:57;;;;;;;8.43;3.97;;;;;;;11.93;73.91;100139.63;5025347;28;20662;-70
2023/05/13 03:20:24;;;;;;;5.27;3.80;;;;;;;12.00;73.28;100143.16;5025412;28;20205;-70
2023/05/13 03:22:52;;;;;;;4.43;3.47;;;;;;;12.06;73.14;100145.06;5023308;28;20625;-70
2023/05/13 03:25:18;;;;;;;6.03;4.20;;;;;;;12.17;72.12;100146.41;5025020;28;20194;-70
2023/05/13 03:27:45;;;;;;;4.47;4.07;;;;;;;12.11;71.77;100126.69;5025567;28;20229;-70
2023/05/13 03:30:13;;;;;;;5.43;4.60;;;;;;;12.36;71.24;100151.91;5023616;28;20238;-70
2023/05/13 03:32:39;;;;;;;4.07;3.57;;;;;;;12.47;71.48;100145.22;5024909;28;20192;-70
2023/05/13 03:35:07;;;;;;;4.40;4.03;;;;;;;12.57;71.31;100146.56;5022627;28;20196;-70
2023/05/13 03:37:33;;;;;;;8.33;3.80;;;;;;;12.67;70.71;100149.72;5023786;28;20197;-70
2023/05/13 03:40:03;;;;;;;5.93;3.73;;;;;;;12.79;70.45;100152.66;5024576;28;20634;-71
2023/05/13 03:42:30;;;;;;;3.93;3.63;;;;;;;12.90;69.94;100147.63;5022802;28;20273;-69
2023/05/13 03:44:57;;;;;;;3.80;3.47;;;;;;;13.05;69.52;100151.03;5024562;28;20232;-69
2023/05/13 03:47:23;;;;;;;3.90;3.57;;;;;;;13.21;69.20;100147.22;5024876;28;20249;-70
2023/05/13 03:49:50;;;;;;;4.30;3.77;;;;;;;13.36;68.38;100151.41;5022846;28;20256;-70
2023/05/13 03:52:17;;;;;;;5.60;3.90;;;;;;;13.48;67.71;100155.16;5023756;28;20259;-69
2023/05/13 03:54:44;;;;;;;3.83;3.47;;;;;;;13.58;66.57;100160.97;5024803;28;20194;-69
2023/05/13 03:57:12;;;;;;;4.27;3.50;;;;;;;13.99;65.53;100156.41;5023367;28;20190;-69
2023/05/13 03:59:38;;;;;;;6.33;3.80;;;;;;;14.70;63.59;100155.69;5024551;28;20193;-69
2023/05/13 04:02:05;;;;;;;7.40;3.70;;;;;;;15.20;60.60;100160.34;5024921;28;20221;-69
2023/05/13 04:04:32;;;;;;;3.77;3.20;;;;;;;15.50;58.54;100144.63;5023768;28;20285;-68
2023/05/13 04:06:59;;;;;;;3.47;3.23;;;;;;;15.65;58.15;100159.41;5029166;28;20772;-68
2023/05/13 04:09:25;;;;;;;3.70;3.40;;;;;;;16.10;58.51;100151.34;5027160;28;20225;-70
2023/05/13 04:11:52;;;;;;;6.13;3.47;;;;;;;16.71;55.43;100149.72;5032219;28;20197;-70
2023/05/13 04:14:21;;;;;;;4.10;3.57;;;;;;;17.58;53.50;100158.34;5036237;28;20648;-69
2023/05/13 04:16:48;;;;;;;12.50;10.90;;;;;;;18.35;49.52;100161.03;5034327;28;20251;-69
2023/05/13 04:19:16;;;;;;;5.13;4.70;;;;;;;18.90;47.28;100162.41;5034813;28;20197;-69
2023/05/13 04:21:43;;;;;;;12.87;4.13;;;;;;;19.32;46.74;100167.47;5032248;28;20665;-72
2023/05/13 04:24:10;;;;;;;4.63;3.87;;;;;;;20.01;45.15;100182.69;5014576;28;20218;-71
2023/05/13 04:26:38;;;;;;;6.07;3.73;;;;;;;20.67;43.75;100180.94;5013731;28;20369;-71
2023/05/13 04:29:04;;;;;;;6.37;3.80;;;;;;;21.28;42.40;100180.06;5013824;28;20244;-72
2023/05/13 04:31:33;;;;;;;5.93;4.77;;;;;;;21.82;39.68;100191.88;5014064;28;20256;-70
2023/05/13 04:33:59;;;;;;;3.67;3.20;;;;;;;22.10;38.95;100195.22;5015332;28;20194;-72
2023/05/13 04:36:26;;;;;;;8.43;3.10;;;;;;;22.39;38.43;100202.03;5033718;28;20216;-71
2023/05/13 04:38:54;;;;;;;5.17;3.20;;;;;;;22.90;37.38;100193.31;5033960;28;20209;-72
2023/05/13 04:41:21;;;;;;;4.87;3.30;;;;;;;23.69;35.92;100208.50;5033209;28;20201;-73
2023/05/13 04:43:47;;;;;;;5.30;3.27;;;;;;;23.67;34.17;100213.38;5033442;28;20281;-71
2023/05/13 04:46:14;;;;;;;3.03;2.83;;;;;;;23.46;35.41;100203.50;5028987;28;20203;-70
2023/05/13 04:48:46;;;;;;;4.03;3.20;;;;;;;24.16;34.56;100214.72;5012431;28;20258;-72
2023/05/13 04:51:13;;;;;;;6.47;5.30;;;;;;;23.73;34.90;100219.66;5013242;28;20194;-72
2023/05/13 04:53:40;;;;;;;4.53;3.40;;;;;;;24.22;34.26;100224.50;5013539;28;20194;-70
2023/05/13 04:56:07;;;;;;;4.00;3.70;;;;;;;24.51;34.50;100233.78;5013035;28;20670;-73
2023/05/13 04:58:34;;;;;;;3.67;3.47;;;;;;;24.94;33.60;100238.78;5018457;28;20249;-72
2023/05/13 05:01:01;;;;;;;8.67;7.23;;;;;;;24.37;33.53;100232.69;5032012;28;20202;-70
2023/05/13 05:03:27;;;;;;;4.17;3.77;;;;;;;24.21;34.26;100220.16;5031363;28;20252;-71
2023/05/13 05:05:55;;;;;;;8.23;4.00;;;;;;;23.52;35.42;100218.72;5013268;28;20198;-72
2023/05/13 05:08:22;;;;;;;5.67;4.67;;;;;;;23.54;36.65;100216.56;5013401;28;20245;-71
2023/05/13 05:10:49;;;;;;;4.33;4.03;;;;;;;24.35;34.95;100225.91;5021547;28;20208;-73
2023/05/13 05:13:16;;;;;;;4.90;4.40;;;;;;;24.39;34.22;100244.09;5032972;28;20234;-71
2023/05/13 05:15:43;;;;;;;5.43;4.30;;;;;;;25.42;32.86;100251.03;5032635;28;20621;-68
2023/05/13 05:18:09;;;;;;;8.03;2.30;;;;;;;25.84;34.93;100242.50;5032080;28;20689;-68
2023/05/13 05:20:37;;;;;;;2.70;2.50;;;;;;;26.44;35.18;100242.25;5012741;28;20212;-69
2023/05/13 05:23:06;;;;;;;5.07;2.90;;;;;;;27.18;33.04;100245.53;5012733;28;20677;-70
2023/05/13 05:25:32;;;;;;;3.07;2.83;;;;;;;26.82;31.50;100234.13;5012637;28;20670;-71
2023/05/13 05:27:59;;;;;;;11.57;4.23;;;;;;;27.40;31.06;100241.28;5012958;28;20226;-70
2023/05/13 05:30:26;;;;;;;11.20;3.67;;;;;;;28.21;29.71;100238.44;5013215;28;20229;-69
2023/05/13 05:32:53;;;;;;;6.20;3.40;;;;;;;28.61;28.83;100235.19;5012830;28;20222;-68
2023/05/13 05:35:19;;;;;;;3.47;3.17;;;;;;;29.02;27.75;100249.91;5014103;28;20194;-65
2023/05/13 05:37:46;;;;;;;6.13;3.50;;;;;;;28.31;26.63;100247.38;5032330;28;20247;-64
2023/05/13 05:40:14;;;;;;;6.37;2.93;;;;;;;28.34;28.21;100235.03;5032225;28;20216;-73
2023/05/13 05:42:41;;;;;;;9.63;3.50;;;;;;;28.45;28.04;100247.44;5012375;28;20252;-65
2023/05/13 05:45:09;;;;;;;4.00;3.10;;;;;;;29.30;26.57;100243.41;5029219;28;20197;-66
2023/05/13 05:47:36;;;;;;;4.20;3.20;;;;;;;29.03;27.18;100237.88;5032223;28;20193;-69
2023/05/13 05:50:03;;;;;;;9.30;3.60;;;;;;;28.42;28.08;100229.72;5032294;28;20197;-68
2023/05/13 05:52:29;;;;;;;2.97;2.67;;;;;;;28.70;27.88;100223.28;5030569;28;20199;-76
2023/05/13 05:54:56;;;;;;;4.73;2.93;;;;;;;28.94;25.69;100224.00;5031565;28;20247;-68
2023/05/13 05:57:24;;;;;;;9.03;3.43;;;;;;;29.03;27.17;100233.19;5031745;28;20194;-67
2023/05/13 05:59:51;;;;;;;3.33;2.73;;;;;;;28.73;27.29;100221.88;5032280;28;20205;-71
2023/05/13 06:02:18;;;;;;;7.87;2.77;;;;;;;28.42;28.37;100223.47;5031118;28;20193;-70
2023/05/13 06:04:44;;;;;;;4.80;3.03;;;;;;;28.55;27.38;100230.91;5018568;28;20197;-71
2023/05/13 06:07:12;;;;;;;3.77;2.77;;;;;;;28.72;27.82;100231.22;5011711;28;20677;-71
2023/05/13 06:09:39;;;;;;;6.27;3.33;;;;;;;28.96;26.42;100242.88;5021468;28;20228;-70
2023/05/13 06:12:07;;;;;;;3.23;2.53;;;;;;;29.39;27.24;100241.59;5031927;28;20195;-69
2023/05/13 06:14:35;;;;;;;3.73;3.03;;;;;;;29.48;27.12;100234.28;5030233;28;20570;-69
2023/05/13 06:17:02;;;;;;;4.57;2.90;;;;;;;29.31;27.21;100236.81;5030070;28;20229;-70
2023/05/13 06:19:29;;;;;;;3.10;2.80;;;;;;;29.12;27.42;100252.47;5032194;28;20613;-71
2023/05/13 06:21:55;;;;;;;3.43;3.13;;;;;;;29.65;26.92;100256.50;5030940;28;20736;-70
2023/05/13 06:24:22;;;;;;;3.33;3.00;;;;;;;29.64;26.46;100260.31;5031714;28;20608;-73
2023/05/13 06:26:49;;;;;;;7.90;2.77;;;;;;;29.84;26.43;100248.97;5016717;28;20252;-75
2023/05/13 06:29:16;;;;;;;6.43;3.23;;;;;;;29.51;26.64;100239.19;5011769;28;20296;-72
2023/05/13 06:31:45;;;;;;;5.13;3.17;;;;;;;28.79;27.78;100253.53;5012478;28;20268;-73
2023/05/13 06:34:15;;;;;;;4.07;3.40;;;;;;;28.91;27.21;100249.22;5011642;28;20248;-67
2023/05/13 06:36:42;;;;;;;6.70;3.70;;;;;;;29.35;26.68;100239.78;5022250;28;20192;-69
2023/05/13 06:39:10;;;;;;;4.40;3.40;;;;;;;29.24;26.25;100244.63;5031874;28;20232;-68
2023/05/13 06:41:36;;;;;;;7.07;3.40;;;;;;;29.02;26.79;100252.63;5031587;28;20255;-69
2023/05/13 06:44:03;;;;;;;3.80;3.47;;;;;;;29.18;27.19;100241.16;5033218;28;20197;-71
2023/05/13 06:46:30;;;;;;;3.90;3.30;;;;;;;29.04;26.38;100234.00;5035122;28;20197;-71
2023/05/13 06:48:58;;;;;;;5.00;3.63;;;;;;;28.23;27.93;100233.53;5033708;28;20221;-69
2023/05/13 06:51:26;;;;;;;5.70;4.37;;;;;;;27.80;27.73;100234.56;5025963;28;20190;-72
2023/05/13 06:53:53;;;;;;;3.87;3.43;;;;;;;26.78;28.67;100235.78;5015483;28;20670;-73
2023/05/13 06:56:21;;;;;;;4.23;3.87;;;;;;;26.59;29.24;100228.56;5015481;28;20202;-72
2023/05/13 06:58:48;;;;;;;4.43;3.63;;;;;;;26.22;29.65;100228.19;5031896;28;20207;-70
2023/05/13 07:01:15;;;;;;;6.20;3.60;;;;;;;25.72;30.98;100233.81;5014932;28;20728;-72
2023/05/13 07:03:42;;;;;;;6.60;3.70;;;;;;;25.46;31.28;100243.94;5019229;28;20217;-72
2023/05/13 07:06:10;;;;;;;7.53;3.60;;;;;;;25.06;31.87;100245.88;5034601;28;20255;-71
2023/05/13 07:08:37;;;;;;;4.17;3.77;;;;;;;24.86;31.53;100246.66;5032847;28;20224;-73
2023/05/13 07:11:04;;;;;;;5.77;3.37;;;;;;;24.27;32.77;100240.81;5033225;28;20203;-72
2023/05/13 07:13:33;;;;;;;8.53;4.33;;;;;;;24.12;33.14;100235.31;5034241;28;20251;-71
2023/05/13 07:16:01;;;;;;;6.73;3.93;;;;;;;24.05;33.61;100233.94;5034338;28;20605;-72
2023/05/13 07:18:27;;;;;;;11.20;7.30;;;;;;;24.11;33.28;100232.88;5034237;28;20745;-73
2023/05/13 07:20:55;;;;;;;7.70;4.70;;;;;;;24.04;33.10;100227.69;5018532;28;20627;-73
2023/05/13 07:23:23;;;;;;;4.20;3.67;;;;;;;23.87;33.84;100221.63;5014726;28;20256;-72
2023/05/13 07:25:51;;;;;;;4.27;3.87;;;;;;;24.06;33.52;100230.94;5014107;28;20200;-71
2023/05/13 07:28:18;;;;;;;7.97;4.00;;;;;;;24.10;32.88;100231.25;5021194;28;20209;-70
2023/05/13 07:30:45;;;;;;;4.07;3.77;;;;;;;23.85;33.58;100229.19;5034575;28;20241;-69
2023/05/13 07:33:12;;;;;;;5.73;4.07;;;;;;;23.85;33.45;100231.91;5033564;28;20246;-70
2023/05/13 07:35:38;;;;;;;4.60;3.93;;;;;;;23.93;33.61;100225.22;5034494;28;20191;-70
2023/05/13 07:38:08;;;;;;;4.83;3.97;;;;;;;23.90;33.79;100221.09;5029168;28;20670;-70
2023/05/13 07:40:37;;;;;;;7.60;4.20;;;;;;;24.12;33.27;100213.59;5014815;28;20258;-70
2023/05/13 07:43:03;;;;;;;3.90;3.60;;;;;;;24.29;32.47;100208.75;5014671;28;20277;-70
2023/05/13 07:45:30;;;;;;;4.50;3.43;;;;;;;24.41;32.84;100212.06;5014515;28;20722;-70
2023/05/13 07:47:57;;;;;;;4.57;4.10;;;;;;;24.68;32.57;100212.69;5014647;28;20267;-70
2023/05/13 07:50:24;;;;;;;4.00;3.60;;;;;;;24.80;32.12;100210.50;5022277;28;20223;-72
2023/05/13 07:52:50;;;;;;;6.17;3.90;;;;;;;24.72;32.11;100216.50;5034294;28;20257;-72
2023/05/13 07:55:17;;;;;;;4.27;3.97;;;;;;;24.69;31.92;100208.88;5034101;28;20638;-72
2023/05/13 07:57:45;;;;;;;5.03;4.07;;;;;;;24.72;32.54;100208.34;5034243;28;20631;-71
2023/05/13 08:00:14;;;;;;;4.00;3.40;;;;;;;24.87;31.64;100197.44;5034240;28;20250;-71
2023/05/13 08:02:42;;;;;;;4.47;4.07;;;;;;;24.41;32.91;100194.94;5024625;28;20196;-71
2023/05/13 08:05:09;;;;;;;5.90;3.30;;;;;;;24.61;33.17;100195.81;5030181;28;20196;-70
2023/05/13 08:07:38;;;;;;;5.00;3.70;;;;;;;24.85;32.64;100191.50;5034153;28;20250;-71
2023/05/13 08:10:05;;;;;;;12.90;4.67;;;;;;;25.06;32.46;100191.47;5031981;28;20239;-71
2023/05/13 08:12:32;;;;;;;10.30;4.10;;;;;;;25.31;32.20;100203.16;5033976;28;20200;-72
2023/05/13 08:15:02;;;;;;;4.20;4.00;;;;;;;24.89;32.64;100203.44;5033459;28;20620;-71
2023/05/13 08:17:29;;;;;;;4.00;3.30;;;;;;;24.42;33.20;100202.81;5034034;28;20219;-71
2023/05/13 08:19:57;;;;;;;7.17;3.20;;;;;;;24.78;32.46;100190.94;5033427;28;20262;-71
2023/05/13 08:22:24;;;;;;;6.83;3.30;;;;;;;25.06;32.27;100207.78;5032674;28;20208;-71
2023/05/13 08:24:50;;;;;;;3.70;3.40;;;;;;;24.78;31.63;100200.97;5033400;28;20254;-71
2023/05/13 08:27:17;;;;;;;4.23;3.27;;;;;;;25.03;31.11;100204.53;5033776;28;20263;-71
2023/05/13 08:29:44;;;;;;;3.10;2.80;;;;;;;25.36;31.12;100197.72;5021506;28;20315;-71
2023/05/13 08:32:12;;;;;;;3.17;2.90;;;;;;;25.57;29.94;100195.75;5013802;28;20662;-72
2023/05/13 08:34:39;;;;;;;10.90;4.23;;;;;;;25.34;29.71;100201.78;5013822;28;20661;-72
2023/05/13 08:37:06;;;;;;;7.30;2.27;;;;;;;25.50;30.07;100203.38;5013790;28;20212;-72
2023/05/13 08:39:33;;;;;;;4.00;3.20;;;;;;;25.76;28.27;100202.25;5022701;28;20201;-72
2023/05/13 08:42:03;;;;;;;2.80;2.60;;;;;;;25.18;29.22;100190.09;5032329;28;20205;-73
2023/05/13 08:44:32;;;;;;;3.37;3.07;;;;;;;25.13;29.71;100211.03;5033076;28;20205;-73
2023/05/13 08:47:06;;;;;;;5.97;2.67;;;;;;;24.81;29.77;100211.31;5033582;28;20203;-71
2023/05/13 08:49:35;;;;;;;3.53;2.73;;;;;;;24.98;29.43;100207.25;5033449;28;20223;-71
2023/05/13 08:52:02;;;;;;;4.37;2.50;;;;;;;25.08;29.25;100198.28;5017549;28;20190;-70
2023/05/13 08:54:30;;;;;;;2.40;2.20;;;;;;;24.91;29.33;100190.38;5013450;28;20577;-70
2023/05/13 08:56:56;;;;;;;3.53;2.47;;;;;;;25.16;29.69;100203.16;5013446;28;20203;-72
2023/05/13 08:59:23;;;;;;;2.07;1.93;;;;;;;25.45;28.86;100200.69;5013293;28;20259;-71
2023/05/13 09:01:50;;;;;;;2.13;2.03;;;;;;;25.54;27.80;100204.47;5025585;28;20213;-72
2023/05/13 09:04:19;;;;;;;2.40;2.20;;;;;;;25.58;27.62;100200.09;5024327;28;20248;-71
2023/05/13 09:06:48;;;;;;;2.23;2.13;;;;;;;25.64;26.49;100193.56;5012814;28;20625;-71
2023/05/13 09:09:15;;;;;;;2.70;2.13;;;;;;;25.14;25.30;100193.66;5013143;28;20274;-70
2023/05/13 09:11:42;;;;;;;2.17;1.97;;;;;;;24.70;26.62;100185.22;5013150;28;20193;-70
2023/05/13 09:14:10;;;;;;;1.90;1.80;;;;;;;23.92;27.55;100177.41;5026084;28;20250;-71
2023/05/13 09:16:38;;;;;;;15.40;3.07;;;;;;;23.55;29.59;100182.94;5033287;28;20212;-70
2023/05/13 09:19:06;;;;;;;2.50;1.83;;;;;;;22.94;29.89;100183.59;5032591;28;20198;-70
2023/05/13 09:21:35;;;;;;;4.60;2.10;;;;;;;23.46;28.80;100187.22;5032540;28;20206;-69
2023/05/13 09:24:17;;;;;;;2.50;2.30;;;;;;;23.05;30.21;100182.59;5032764;28;20257;-71
2023/05/13 09:26:44;;;;;;;3.27;1.97;;;;;;;23.40;29.51;100180.13;5032213;28;20198;-70
2023/05/13 09:29:16;;;;;;;2.33;2.13;;;;;;;23.24;30.47;100180.31;5032145;28;20240;-70
2023/05/13 09:31:43;;;;;;;4.43;2.80;;;;;;;23.41;30.53;100173.66;5031474;28;20199;-70
2023/05/13 09:34:10;;;;;;;2.97;2.40;;;;;;;23.96;30.24;100171.19;5018350;28;20207;-70
2023/05/13 09:36:37;;;;;;;2.43;2.23;;;;;;;24.39;29.67;100170.75;5012035;28;20273;-72
2023/05/13 09:39:04;;;;;;;2.33;2.13;;;;;;;24.60;28.85;100177.03;5011455;28;20196;-72
2023/05/13 09:41:32;;;;;;;3.00;2.00;;;;;;;23.73;30.16;100168.91;5011567;28;20200;-70
2023/05/13 09:44:02;;;;;;;2.67;2.47;;;;;;;24.06;29.84;100173.94;5020822;28;20187;-70
2023/05/13 09:46:31;;;;;;;4.03;2.33;;;;;;;23.50;29.95;100166.63;5029945;28;20194;-70
2023/05/13 09:48:57;;;;;;;2.80;2.60;;;;;;;23.44;30.32;100164.97;5030939;28;20630;-69
2023/05/13 09:51:29;;;;;;;3.80;2.40;;;;;;;23.66;30.40;100154.78;5031560;28;20614;-69
2023/05/13 09:54:03;;;;;;;2.77;2.27;;;;;;;24.17;30.04;100158.47;5030923;28;20186;-69
2023/05/13 09:56:30;;;;;;;2.80;2.37;;;;;;;24.58;29.51;100161.00;5017029;28;20199;-69
2023/05/13 09:58:59;;;;;;;3.47;2.70;;;;;;;24.54;29.72;100161.84;5011019;28;20299;-72
2023/05/13 10:01:27;;;;;;;3.33;2.57;;;;;;;24.67;29.55;100169.47;5011246;28;20205;-70
2023/05/13 10:03:54;;;;;;;2.53;2.33;;;;;;;24.81;29.22;100163.22;5017103;28;20200;-70
2023/05/13 10:06:23;;;;;;;3.40;2.30;;;;;;;24.16;30.18;100175.88;5029990;28;20196;-70
2023/05/13 10:08:50;;;;;;;2.80;2.60;;;;;;;24.26;30.59;100165.03;5030872;28;20196;-70
2023/05/13 10:11:19;;;;;;;4.97;2.47;;;;;;;24.31;30.45;100149.59;5030954;28;20239;-70
2023/05/13 10:13:53;;;;;;;3.60;2.50;;;;;;;24.62;30.28;100151.25;5026281;28;20201;-70
2023/05/13 10:16:23;;;;;;;3.57;2.40;;;;;;;24.87;29.61;100153.16;5011841;28;20189;-71
2023/05/13 10:18:51;;;;;;;2.73;2.53;;;;;;;24.86;28.86;100132.47;5009905;28;20201;-70
2023/05/13 10:21:19;;;;;;;3.10;2.90;;;;;;;24.53;28.72;100158.28;5011274;28;20275;-70
2023/05/13 10:23:46;;;;;;;2.43;2.23;;;;;;;24.27;29.74;100148.50;5014474;28;20262;-71
2023/05/13 10:26:13;;;;;;;2.33;2.20;;;;;;;23.78;30.32;100149.94;5030995;28;20194;-70
2023/05/13 10:28:42;;;;;;;2.97;2.40;;;;;;;23.85;30.60;100142.34;4991415;28;1121722;-69
2023/05/13 10:31:09;;;;;;;5.67;2.60;;;;;;;24.22;30.48;100143.03;5031677;28;20661;-70
2023/05/13 10:33:37;;;;;;;2.63;2.43;;;;;;;23.88;30.20;100135.56;5031702;28;20257;-70
2023/05/13 10:36:21;;;;;;;3.27;2.40;;;;;;;23.83;30.30;100133.69;5023507;28;20208;-70
2023/05/13 10:39:06;;;;;;;5.10;2.63;;;;;;;24.22;30.06;100126.72;5011810;28;20196;-70
2023/05/13 10:42:09;;;;;;;3.37;2.27;;;;;;;23.22;30.32;100120.94;5011534;28;20658;-69
2023/05/13 10:44:36;;;;;;;4.73;2.80;;;;;;;23.35;31.14;100125.88;5019169;28;20666;-70
2023/05/13 10:47:03;;;;;;;2.20;2.07;;;;;;;23.82;30.67;100126.63;5031393;28;20207;-70
2023/05/13 10:49:35;;;;;;;5.50;2.07;;;;;;;24.10;30.34;100122.66;5031523;28;20276;-71
2023/05/13 10:52:04;;;;;;;2.77;2.17;;;;;;;23.67;31.55;100113.00;5031907;28;20200;-71
2023/05/13 10:54:38;;;;;;;2.70;2.00;;;;;;;23.86;31.05;100116.03;5023206;28;20207;-70
2023/05/13 10:57:05;;;;;;;2.40;2.30;;;;;;;23.75;30.52;100120.63;5011788;28;20188;-70
2023/05/13 10:59:33;;;;;;;4.50;2.20;;;;;;;23.60;30.84;100123.28;5011232;28;20639;-70
2023/05/13 11:02:02;;;;;;;5.50;2.10;;;;;;;23.78;30.59;100124.69;5011310;28;20200;-70
2023/05/13 11:04:29;;;;;;;1.87;1.77;;;;;;;23.78;30.63;100103.81;5020134;28;20199;-70
2023/05/13 11:07:14;;;;;;;2.87;2.30;;;;;;;22.94;31.89;100107.72;5030987;28;20200;-70
2023/05/13 11:09:41;;;;;;;2.73;2.07;;;;;;;22.92;32.47;100109.88;5030884;28;20643;-70
2023/05/13 11:12:15;;;;;;;2.30;2.10;;;;;;;23.15;32.18;100108.66;5031017;28;20703;-70
2023/05/13 11:14:43;;;;;;;1.93;1.70;;;;;;;23.39;31.99;100102.56;5024021;28;20192;-70
2023/05/13 11:17:11;;;;;;;5.83;2.93;;;;;;;22.83;33.80;100108.72;5011559;28;20199;-70
2023/05/13 11:19:39;;;;;;;2.57;1.87;;;;;;;23.05;33.53;100114.00;5011577;28;20191;-70
2023/05/13 11:22:10;;;;;;;3.53;2.67;;;;;;;23.50;33.06;100117.00;5011475;28;20258;-71
2023/05/13 11:24:36;;;;;;;2.63;2.40;;;;;;;23.54;32.13;100120.81;5011013;28;20249;-70
2023/05/13 11:27:14;;;;;;;2.50;2.30;;;;;;;23.23;32.67;100109.00;5022872;28;20221;-70